createdAt,value
2024-01-18T00:00:30.905Z,12.56
2024-01-18T00:02:57.609Z,12.47
2024-01-18T00:05:24.130Z,12.64
2024-01-18T00:07:50.600Z,12.78
2024-01-18T00:10:17.020Z,12.69
2024-01-18T00:12:43.565Z,12.79
2024-01-18T00:15:10.193Z,12.98
2024-01-18T00:17:36.773Z,12.56
2024-01-18T00:20:03.337Z,12.95
2024-01-18T00:22:29.809Z,13.14
2024-01-18T00:24:56.273Z,13.24
2024-01-18T00:27:22.778Z,13.01
2024-01-18T00:29:49.295Z,13.09
2024-01-18T00:32:15.782Z,12.88
2024-01-18T00:34:42.250Z,12.98
2024-01-18T00:37:08.715Z,13.04
2024-01-18T00:39:35.250Z,12.91
2024-01-18T00:42:02.165Z,12.92
2024-01-18T00:44:28.865Z,12.72
2024-01-18T00:46:55.409Z,12.88
2024-01-18T00:49:22.058Z,13.01
2024-01-18T00:51:48.520Z,12.99
2024-01-18T00:54:15.034Z,12.83
2024-01-18T00:56:41.582Z,12.93
2024-01-18T00:59:08.037Z,12.93
2024-01-18T01:01:34.529Z,12.98
2024-01-18T01:04:01.097Z,12.89
2024-01-18T01:06:27.731Z,12.93
2024-01-18T01:08:54.227Z,12.92
2024-01-18T01:11:20.793Z,12.82
2024-01-18T01:13:47.264Z,12.76
2024-01-18T01:16:14.058Z,12.61
2024-01-18T01:18:40.667Z,12.63
2024-01-18T01:21:07.183Z,12.48
2024-01-18T01:23:33.644Z,12.44
2024-01-18T01:26:00.214Z,12.29
2024-01-18T01:28:26.690Z,12.37
2024-01-18T01:30:53.178Z,12.34
2024-01-18T01:33:19.842Z,12.41
2024-01-18T01:35:46.632Z,12.48
2024-01-18T01:38:13.094Z,12.59
2024-01-18T01:40:39.576Z,12.46
2024-01-18T01:43:06.065Z,12.53
2024-01-18T01:45:32.678Z,12.40
2024-01-18T01:47:59.627Z,12.35
2024-01-18T01:50:26.192Z,12.33
2024-01-18T01:52:52.664Z,12.42
2024-01-18T01:55:19.667Z,12.50
2024-01-18T01:57:46.119Z,12.52
2024-01-18T02:00:12.579Z,12.04
2024-01-18T02:02:39.060Z,12.16
2024-01-18T02:05:05.539Z,12.04
2024-01-18T02:07:32.017Z,12.18
2024-01-18T02:09:58.677Z,12.00
2024-01-18T02:12:25.221Z,11.76
2024-01-18T02:14:51.698Z,11.68
2024-01-18T02:17:18.163Z,11.49
2024-01-18T02:19:44.723Z,11.47
2024-01-18T02:22:11.279Z,11.15
2024-01-18T02:24:37.785Z,11.47
2024-01-18T02:27:04.379Z,11.68
2024-01-18T02:29:31.148Z,11.71
2024-01-18T02:31:57.766Z,11.55
2024-01-18T02:34:24.435Z,11.63
2024-01-18T02:36:50.937Z,12.01
2024-01-18T02:39:17.505Z,12.11
2024-01-18T02:41:43.965Z,12.20
2024-01-18T02:44:10.428Z,12.25
2024-01-18T02:46:39.943Z,12.25
2024-01-18T02:49:06.868Z,12.13
2024-01-18T02:51:33.428Z,12.25
2024-01-18T02:53:59.956Z,11.96
2024-01-18T02:56:26.449Z,11.42
2024-01-18T02:58:53.034Z,10.98
2024-01-18T03:01:19.567Z,11.51
2024-01-18T03:03:46.224Z,11.62
2024-01-18T03:06:12.851Z,11.78
2024-01-18T03:08:39.367Z,11.78
2024-01-18T03:11:06.139Z,11.71
2024-01-18T03:13:32.610Z,11.98
2024-01-18T03:16:00.317Z,11.93
2024-01-18T03:18:27.084Z,11.95
2024-01-18T03:20:53.821Z,11.86
2024-01-18T03:23:20.346Z,12.01
2024-01-18T03:25:48.997Z,12.21
2024-01-18T03:28:15.474Z,12.18
2024-01-18T03:30:42.191Z,12.11
2024-01-18T03:33:09.011Z,12.11
2024-01-18T03:35:35.585Z,12.14
2024-01-18T03:38:02.058Z,12.31
2024-01-18T03:40:28.607Z,12.07
2024-01-18T03:42:55.195Z,12.08
2024-01-18T03:45:21.658Z,12.24
2024-01-18T03:47:48.672Z,12.09
2024-01-18T03:50:15.223Z,12.16
2024-01-18T03:52:41.772Z,12.32
2024-01-18T03:55:08.309Z,12.28
2024-01-18T03:57:35.004Z,12.22
2024-01-18T04:00:01.695Z,12.24
2024-01-18T04:02:28.398Z,12.23
2024-01-18T04:04:55.048Z,12.24
2024-01-18T04:07:21.492Z,12.30
2024-01-18T04:09:47.965Z,12.29
2024-01-18T04:12:14.495Z,12.24
2024-01-18T04:14:40.962Z,12.16
2024-01-18T04:17:07.412Z,12.03
2024-01-18T04:19:34.043Z,11.81
2024-01-18T04:22:00.635Z,12.13
2024-01-18T04:24:27.071Z,12.24
2024-01-18T04:26:53.524Z,12.33
2024-01-18T04:29:19.971Z,12.32
2024-01-18T04:31:46.488Z,12.25
2024-01-18T04:34:12.974Z,12.26
2024-01-18T04:36:39.444Z,12.16
2024-01-18T04:39:05.963Z,12.19
2024-01-18T04:41:32.686Z,11.89
2024-01-18T04:43:59.152Z,11.38
2024-01-18T04:46:25.591Z,11.36
2024-01-18T04:48:52.222Z,11.53
2024-01-18T04:51:18.792Z,11.42
2024-01-18T04:53:45.263Z,11.49
2024-01-18T04:56:11.708Z,11.78
2024-01-18T04:58:39.417Z,11.52
2024-01-18T05:01:07.487Z,11.28
2024-01-18T05:03:34.045Z,11.52
2024-01-18T05:06:00.722Z,11.43
2024-01-18T05:08:27.282Z,11.31
2024-01-18T05:10:53.783Z,11.69
2024-01-18T05:13:20.317Z,11.32
2024-01-18T05:15:46.928Z,11.52
2024-01-18T05:18:13.627Z,11.57
2024-01-18T05:20:40.390Z,11.58
2024-01-18T05:23:06.877Z,11.63
2024-01-18T05:25:33.401Z,11.57
2024-01-18T05:27:59.949Z,11.79
2024-01-18T05:30:26.465Z,11.91
2024-01-18T05:32:53.083Z,11.88
2024-01-18T05:35:19.620Z,12.10
2024-01-18T05:37:46.112Z,12.07
2024-01-18T05:40:12.659Z,12.08
2024-01-18T05:42:39.509Z,11.86
2024-01-18T05:45:06.202Z,12.01
2024-01-18T05:47:32.920Z,12.08
2024-01-18T05:49:59.868Z,12.22
2024-01-18T05:52:26.362Z,11.99
2024-01-18T05:54:52.806Z,12.19
2024-01-18T05:57:19.725Z,11.72
2024-01-18T05:59:46.446Z,12.00
2024-01-18T06:02:12.897Z,11.96
2024-01-18T06:04:39.596Z,12.12
2024-01-18T06:07:06.358Z,11.97
2024-01-18T06:09:33.048Z,11.95
2024-01-18T06:11:59.706Z,11.81
2024-01-18T06:14:26.385Z,11.88
2024-01-18T06:16:52.900Z,11.80
2024-01-18T06:19:19.498Z,11.72
2024-01-18T06:21:46.214Z,11.70
2024-01-18T06:24:12.791Z,11.72
2024-01-18T06:26:39.289Z,11.59
2024-01-18T06:29:05.940Z,11.80
2024-01-18T06:31:32.472Z,11.82
2024-01-18T06:33:59.148Z,11.92
2024-01-18T06:36:25.837Z,11.78
2024-01-18T06:38:52.319Z,11.88
2024-01-18T06:41:18.912Z,11.87
2024-01-18T06:43:45.335Z,11.81
2024-01-18T06:46:11.863Z,11.94
2024-01-18T06:48:39.084Z,11.79
2024-01-18T06:51:09.297Z,11.81
2024-01-18T06:53:35.746Z,11.81
2024-01-18T06:56:02.943Z,11.89
2024-01-18T06:58:29.407Z,12.02
2024-01-18T07:00:59.232Z,11.87
2024-01-18T07:03:26.172Z,11.90
2024-01-18T07:05:52.737Z,11.78
2024-01-18T07:08:19.406Z,11.76
2024-01-18T07:10:46.072Z,11.79
2024-01-18T07:13:13.973Z,11.75
2024-01-18T07:15:40.556Z,11.94
2024-01-18T07:18:07.137Z,12.00
2024-01-18T07:20:42.583Z,12.16
2024-01-18T07:23:09.171Z,12.16
2024-01-18T07:25:35.777Z,12.14
2024-01-18T07:28:02.271Z,12.28
2024-01-18T07:30:28.946Z,12.39
2024-01-18T07:32:55.791Z,11.98
2024-01-18T07:35:22.514Z,11.85
2024-01-18T07:37:49.424Z,12.06
2024-01-18T07:40:16.960Z,12.23
2024-01-18T07:42:43.808Z,12.25
2024-01-18T07:45:13.355Z,12.23
2024-01-18T07:47:40.359Z,12.14
2024-01-18T07:50:18.235Z,11.99
2024-01-18T07:52:51.696Z,12.18
2024-01-18T07:55:22.282Z,12.08
2024-01-18T07:57:49.042Z,11.95
2024-01-18T08:00:15.943Z,11.78
2024-01-18T08:02:43.260Z,12.01
2024-01-18T08:05:09.846Z,11.94
2024-01-18T08:07:36.401Z,12.05
2024-01-18T08:10:02.897Z,12.10
2024-01-18T08:12:29.620Z,12.15
2024-01-18T08:14:56.548Z,12.08
2024-01-18T08:17:23.135Z,12.10
2024-01-18T08:19:49.932Z,12.18
2024-01-18T08:22:16.931Z,12.04
2024-01-18T08:24:43.757Z,11.91
2024-01-18T08:27:10.361Z,12.00
2024-01-18T08:29:37.101Z,12.27
2024-01-18T08:32:03.996Z,12.40
2024-01-18T08:34:30.738Z,12.55
2024-01-18T08:36:57.279Z,12.24
2024-01-18T08:39:23.801Z,12.53
2024-01-18T08:41:50.897Z,12.36
2024-01-18T08:44:17.637Z,12.35
2024-01-18T08:46:44.169Z,12.47
2024-01-18T08:49:10.734Z,12.52
2024-01-18T08:51:37.567Z,12.65
2024-01-18T08:54:04.304Z,12.33
2024-01-18T08:56:31.684Z,12.24
2024-01-18T08:59:01.424Z,12.13
2024-01-18T09:01:27.946Z,12.38
2024-01-18T09:03:57.745Z,12.77
2024-01-18T09:06:24.460Z,12.54
2024-01-18T09:08:51.094Z,12.54
2024-01-18T09:11:17.642Z,12.42
2024-01-18T09:13:44.093Z,12.26
2024-01-18T09:16:10.710Z,12.40
2024-01-18T09:18:37.252Z,12.31
2024-01-18T09:21:03.711Z,12.45
2024-01-18T09:23:30.203Z,12.40
2024-01-18T09:25:56.658Z,12.52
2024-01-18T09:28:23.232Z,12.37
2024-01-18T09:30:49.706Z,12.53
2024-01-18T09:33:16.324Z,12.37
2024-01-18T09:35:42.898Z,12.54
2024-01-18T09:38:09.455Z,12.52
2024-01-18T09:40:35.929Z,12.48
2024-01-18T09:43:02.671Z,12.57
2024-01-18T09:45:29.213Z,12.73
2024-01-18T09:47:55.743Z,12.63
2024-01-18T09:50:22.325Z,12.47
2024-01-18T09:52:48.784Z,12.20
2024-01-18T09:55:15.607Z,12.44
2024-01-18T09:57:42.144Z,12.69
2024-01-18T10:00:09.764Z,12.49
2024-01-18T10:02:36.485Z,12.62
2024-01-18T10:05:02.954Z,12.68
2024-01-18T10:07:29.816Z,12.55
2024-01-18T10:09:56.369Z,12.42
2024-01-18T10:12:22.810Z,12.63
2024-01-18T10:14:49.523Z,12.69
2024-01-18T10:17:15.978Z,12.81
2024-01-18T10:19:42.533Z,12.70
2024-01-18T10:22:09.016Z,12.47
2024-01-18T10:24:35.473Z,12.42
2024-01-18T10:27:01.948Z,12.46
2024-01-18T10:29:28.374Z,12.53
2024-01-18T10:31:54.945Z,12.33
2024-01-18T10:34:21.688Z,12.23
2024-01-18T10:36:48.352Z,12.27
2024-01-18T10:39:14.973Z,12.33
2024-01-18T10:41:41.499Z,12.53
2024-01-18T10:44:09.165Z,12.25
2024-01-18T10:46:36.813Z,12.27
2024-01-18T10:49:03.422Z,12.67
2024-01-18T10:51:29.967Z,12.58
2024-01-18T10:53:58.043Z,12.37
2024-01-18T10:56:25.252Z,12.65
2024-01-18T10:58:51.752Z,12.63
2024-01-18T11:01:18.367Z,12.58
2024-01-18T11:03:45.175Z,12.57
2024-01-18T11:06:11.798Z,12.50
2024-01-18T11:08:38.314Z,12.41
2024-01-18T11:11:04.843Z,12.47
2024-01-18T11:13:33.124Z,12.88
2024-01-18T11:15:59.867Z,12.67
2024-01-18T11:18:26.428Z,12.83
2024-01-18T11:20:52.879Z,12.50
2024-01-18T11:23:19.388Z,12.47
2024-01-18T11:25:45.852Z,12.65
2024-01-18T11:28:12.433Z,12.35
2024-01-18T11:30:38.976Z,12.47
2024-01-18T11:33:05.534Z,12.64
2024-01-18T11:35:32.066Z,12.46
2024-01-18T11:37:58.605Z,12.55
2024-01-18T11:40:25.193Z,12.71
2024-01-18T11:42:51.709Z,12.80
2024-01-18T11:45:18.436Z,12.59
2024-01-18T11:47:45.097Z,12.73
2024-01-18T11:50:11.655Z,12.54
2024-01-18T11:52:38.488Z,12.51
2024-01-18T11:55:04.950Z,12.53
2024-01-18T11:57:31.424Z,12.48
2024-01-18T11:59:57.936Z,12.14
2024-01-18T12:02:24.588Z,12.16
2024-01-18T12:04:53.006Z,12.06
2024-01-18T12:07:19.901Z,12.15
2024-01-18T12:09:46.466Z,12.05
2024-01-18T12:12:13.005Z,12.09
2024-01-18T12:14:39.613Z,12.25
2024-01-18T12:17:06.048Z,12.47
2024-01-18T12:19:32.626Z,12.20
2024-01-18T12:21:59.380Z,12.29
2024-01-18T12:24:25.941Z,12.23
2024-01-18T12:26:52.424Z,12.62
2024-01-18T12:29:18.941Z,12.64
2024-01-18T12:31:45.362Z,12.38
2024-01-18T12:34:11.928Z,12.45
2024-01-18T12:36:38.507Z,12.44
2024-01-18T12:39:05.090Z,12.31
2024-01-18T12:41:31.525Z,12.39
2024-01-18T12:43:57.958Z,11.96
2024-01-18T12:46:24.426Z,12.26
2024-01-18T12:48:51.052Z,12.16
2024-01-18T12:51:17.540Z,12.25
2024-01-18T12:53:44.034Z,12.59
2024-01-18T12:56:10.486Z,12.56
2024-01-18T12:58:36.915Z,12.38
2024-01-18T13:01:03.526Z,12.57
2024-01-18T13:03:30.174Z,12.57
2024-01-18T13:05:56.689Z,12.78
2024-01-18T13:08:23.210Z,12.86
2024-01-18T13:10:49.960Z,12.95
2024-01-18T13:13:16.504Z,12.81
2024-01-18T13:15:43.097Z,12.90
2024-01-18T13:18:09.697Z,12.68
2024-01-18T13:20:36.333Z,12.74
2024-01-18T13:23:02.809Z,12.98
2024-01-18T13:25:29.341Z,12.98
2024-01-18T13:27:55.836Z,12.84
2024-01-18T13:30:22.509Z,12.96
2024-01-18T13:32:49.065Z,13.07
2024-01-18T13:35:15.762Z,12.72
2024-01-18T13:37:42.263Z,12.76
2024-01-18T13:40:09.298Z,12.77
2024-01-18T13:42:36.395Z,12.46
2024-01-18T13:45:03.005Z,12.45
2024-01-18T13:47:29.665Z,12.13
2024-01-18T13:49:56.206Z,12.25
2024-01-18T13:52:22.848Z,12.30
2024-01-18T13:54:49.492Z,12.25
2024-01-18T13:57:16.024Z,11.76
2024-01-18T13:59:42.726Z,12.01
2024-01-18T14:02:09.293Z,11.82
2024-01-18T14:04:35.859Z,11.73
2024-01-18T14:07:02.382Z,12.02
2024-01-18T14:09:29.424Z,12.14
2024-01-18T14:11:56.846Z,11.92
2024-01-18T14:14:23.617Z,11.96
2024-01-18T14:16:50.121Z,11.88
2024-01-18T14:19:16.706Z,11.99
2024-01-18T14:21:46.137Z,12.03
2024-01-18T14:24:12.704Z,12.00
2024-01-18T14:26:39.335Z,12.05
2024-01-18T14:29:06.200Z,11.93
2024-01-18T14:31:32.803Z,11.69
2024-01-18T14:33:59.310Z,12.07
2024-01-18T14:36:25.874Z,11.86
2024-01-18T14:38:52.321Z,11.68
2024-01-18T14:41:18.922Z,11.71
2024-01-18T14:43:45.538Z,11.99
2024-01-18T14:46:12.137Z,12.00
2024-01-18T14:48:38.827Z,12.27
2024-01-18T14:51:05.398Z,12.05
2024-01-18T14:53:31.866Z,11.79
2024-01-18T14:55:58.351Z,11.66
2024-01-18T14:58:25.039Z,11.52
2024-01-18T15:00:51.552Z,11.72
2024-01-18T15:03:18.116Z,11.69
2024-01-18T15:05:44.662Z,11.25
2024-01-18T15:08:11.236Z,11.38
2024-01-18T15:10:37.767Z,11.38
2024-01-18T15:13:04.311Z,10.97
2024-01-18T15:15:31.244Z,11.26
2024-01-18T15:17:57.826Z,11.31
2024-01-18T15:20:24.464Z,11.18
2024-01-18T15:22:50.963Z,11.25
2024-01-18T15:25:17.448Z,11.42
2024-01-18T15:27:43.953Z,11.01
2024-01-18T15:30:10.503Z,11.13
2024-01-18T15:32:37.118Z,11.01
2024-01-18T15:35:03.754Z,11.15
2024-01-18T15:37:30.385Z,11.06
2024-01-18T15:39:56.926Z,11.23
2024-01-18T15:42:23.578Z,11.08
2024-01-18T15:44:50.269Z,10.90
2024-01-18T15:47:16.732Z,10.83
2024-01-18T15:49:43.264Z,10.70
2024-01-18T15:52:09.856Z,10.71
2024-01-18T15:54:36.362Z,10.65
2024-01-18T15:57:02.809Z,10.55
2024-01-18T15:59:29.444Z,10.25
2024-01-18T16:01:55.953Z,10.53
2024-01-18T16:04:22.440Z,10.40
2024-01-18T16:06:48.975Z,10.33
2024-01-18T16:09:15.676Z,10.18
2024-01-18T16:11:42.142Z,10.34
2024-01-18T16:14:08.686Z,10.31
2024-01-18T16:16:35.233Z,10.49
2024-01-18T16:19:01.844Z,10.43
2024-01-18T16:21:28.458Z,10.36
2024-01-18T16:23:54.981Z,10.38
2024-01-18T16:26:21.489Z,10.42
2024-01-18T16:28:47.956Z,10.33
2024-01-18T16:31:14.542Z,10.45
2024-01-18T16:33:41.182Z,10.24
2024-01-18T16:36:07.670Z,10.32
2024-01-18T16:38:34.188Z,10.46
2024-01-18T16:41:02.634Z,10.20
2024-01-18T16:43:29.461Z,10.28
2024-01-18T16:45:56.292Z,10.28
2024-01-18T16:48:22.930Z,10.20
2024-01-18T16:50:49.480Z,10.45
2024-01-18T16:53:15.967Z,10.50
2024-01-18T16:55:42.500Z,10.31
2024-01-18T16:58:08.982Z,9.94
2024-01-18T17:00:35.533Z,10.15
2024-01-18T17:03:02.002Z,10.31
2024-01-18T17:05:28.689Z,10.30
2024-01-18T17:07:55.181Z,9.95
2024-01-18T17:10:21.660Z,9.99
2024-01-18T17:12:48.149Z,9.99
2024-01-18T17:15:14.629Z,9.99
2024-01-18T17:17:41.168Z,10.42
2024-01-18T17:20:07.744Z,10.54
2024-01-18T17:22:34.314Z,10.35
2024-01-18T17:25:00.830Z,10.54
2024-01-18T17:27:27.524Z,10.72
2024-01-18T17:29:54.071Z,10.72
2024-01-18T17:32:20.540Z,10.78
2024-01-18T17:34:47.157Z,10.42
2024-01-18T17:37:13.637Z,10.48
2024-01-18T17:39:40.127Z,10.42
2024-01-18T17:42:06.567Z,10.49
2024-01-18T17:44:33.102Z,10.61
2024-01-18T17:46:59.717Z,10.44
2024-01-18T17:49:26.436Z,10.43
2024-01-18T17:51:53.035Z,10.62
2024-01-18T17:54:19.566Z,10.80
2024-01-18T17:56:46.185Z,10.55
2024-01-18T17:59:12.819Z,10.17
2024-01-18T18:01:39.263Z,10.31
2024-01-18T18:04:05.733Z,10.67
2024-01-18T18:06:32.370Z,10.31
2024-01-18T18:08:58.857Z,10.35
2024-01-18T18:11:25.332Z,10.38
2024-01-18T18:13:51.829Z,10.35
2024-01-18T18:16:18.278Z,10.16
2024-01-18T18:18:44.819Z,10.16
2024-01-18T18:21:11.456Z,10.04
2024-01-18T18:23:37.965Z,10.52
2024-01-18T18:26:07.924Z,11.00
2024-01-18T18:28:35.693Z,10.40
2024-01-18T18:31:02.157Z,10.77
2024-01-18T18:33:28.791Z,10.21
2024-01-18T18:35:55.347Z,10.26
2024-01-18T18:38:29.700Z,10.33
2024-01-18T18:40:59.242Z,10.06
2024-01-18T18:43:25.770Z,9.86
2024-01-18T18:45:52.217Z,9.98
2024-01-18T18:48:18.689Z,9.93
2024-01-18T18:50:45.311Z,10.38
2024-01-18T18:53:11.939Z,10.40
2024-01-18T18:55:38.454Z,10.40
2024-01-18T18:58:04.911Z,10.32
2024-01-18T19:00:31.385Z,10.46
2024-01-18T19:02:57.907Z,10.17
2024-01-18T19:05:24.520Z,9.91
2024-01-18T19:07:51.066Z,10.00
2024-01-18T19:10:17.577Z,9.75
2024-01-18T19:12:44.097Z,9.70
2024-01-18T19:15:10.549Z,9.28
2024-01-18T19:17:37.230Z,9.18
2024-01-18T19:20:03.691Z,9.47
2024-01-18T19:22:30.149Z,9.60
2024-01-18T19:24:56.666Z,9.09
2024-01-18T19:27:23.102Z,9.63
2024-01-18T19:29:49.598Z,9.46
2024-01-18T19:32:16.081Z,8.93
2024-01-18T19:34:42.622Z,9.67
2024-01-18T19:37:09.163Z,9.46
2024-01-18T19:39:40.576Z,9.61
2024-01-18T19:42:10.123Z,9.34
2024-01-18T19:44:36.676Z,9.10
2024-01-18T19:47:03.214Z,8.65
2024-01-18T19:49:29.734Z,8.58
2024-01-18T19:51:56.216Z,8.48
2024-01-18T19:54:22.806Z,8.73
2024-01-18T19:56:49.285Z,8.65
2024-01-18T19:59:15.948Z,9.04
2024-01-18T20:01:42.426Z,8.67
2024-01-18T20:04:08.972Z,8.73
2024-01-18T20:06:35.535Z,9.38
2024-01-18T20:09:02.125Z,9.24
2024-01-18T20:11:28.697Z,9.39
2024-01-18T20:13:55.199Z,9.14
2024-01-18T20:16:21.669Z,8.89
2024-01-18T20:18:49.841Z,8.70
2024-01-18T20:21:17.919Z,8.59
2024-01-18T20:23:44.500Z,8.67
2024-01-18T20:26:12.328Z,8.55
2024-01-18T20:28:40.285Z,8.78
2024-01-18T20:31:06.876Z,9.04
2024-01-18T20:33:33.645Z,9.11
2024-01-18T20:36:00.353Z,9.27
2024-01-18T20:38:26.886Z,8.86
2024-01-18T20:40:53.388Z,9.01
2024-01-18T20:43:19.831Z,9.10
2024-01-18T20:45:46.299Z,9.19
2024-01-18T20:48:13.078Z,9.10
2024-01-18T20:50:39.692Z,9.15
2024-01-18T20:53:06.442Z,9.13
2024-01-18T20:55:33.162Z,9.17
2024-01-18T20:57:59.614Z,9.11
2024-01-18T21:00:32.285Z,9.13
2024-01-18T21:03:02.409Z,9.14
2024-01-18T21:05:29.337Z,8.90
2024-01-18T21:07:55.818Z,8.55
2024-01-18T21:10:22.629Z,8.66
2024-01-18T21:12:49.200Z,8.64
2024-01-18T21:15:15.744Z,8.48
2024-01-18T21:17:44.910Z,8.33
2024-01-18T21:20:12.585Z,8.18
2024-01-18T21:22:39.526Z,8.22
2024-01-18T21:25:06.446Z,8.25
2024-01-18T21:27:32.901Z,8.46
2024-01-18T21:30:02.538Z,8.40
2024-01-18T21:32:29.105Z,8.34
2024-01-18T21:34:55.883Z,8.29
2024-01-18T21:37:22.665Z,8.44
2024-01-18T21:39:49.401Z,8.54
2024-01-18T21:42:17.854Z,8.39
2024-01-18T21:44:44.936Z,8.19
2024-01-18T21:47:11.878Z,8.23
2024-01-18T21:49:38.930Z,8.25
2024-01-18T21:52:05.521Z,7.88
2024-01-18T21:54:32.164Z,7.96
2024-01-18T21:56:59.399Z,7.65
2024-01-18T21:59:36.026Z,7.82
2024-01-18T22:02:07.585Z,7.25
2024-01-18T22:04:34.709Z,7.31
2024-01-18T22:07:01.252Z,7.16
2024-01-18T22:09:33.942Z,7.45
2024-01-18T22:12:07.635Z,7.81
2024-01-18T22:14:34.183Z,7.70
2024-01-18T22:17:00.696Z,7.58
2024-01-18T22:19:39.968Z,7.44
2024-01-18T22:22:13.393Z,7.38
2024-01-18T22:24:40.115Z,7.71
2024-01-18T22:27:06.913Z,7.81
2024-01-18T22:29:33.720Z,7.72
2024-01-18T22:32:00.471Z,7.72
2024-01-18T22:34:26.985Z,7.69
2024-01-18T22:36:53.466Z,7.65
2024-01-18T22:39:20.189Z,7.23
2024-01-18T22:41:46.984Z,7.17
2024-01-18T22:44:13.707Z,7.10
2024-01-18T22:46:40.545Z,7.26
2024-01-18T22:49:07.323Z,7.21
2024-01-18T22:51:34.120Z,7.08
2024-01-18T22:54:00.644Z,7.06
2024-01-18T22:56:27.363Z,6.99
2024-01-18T22:58:53.979Z,7.06
2024-01-18T23:01:20.629Z,7.15
2024-01-18T23:03:47.611Z,7.04
2024-01-18T23:06:14.453Z,7.13
2024-01-18T23:08:40.953Z,7.21
2024-01-18T23:11:08.518Z,6.97
2024-01-18T23:13:35.140Z,6.84
2024-01-18T23:16:01.784Z,7.05
2024-01-18T23:18:28.458Z,6.92
2024-01-18T23:20:55.007Z,6.81
2024-01-18T23:23:21.501Z,6.82
2024-01-18T23:25:47.965Z,6.55
2024-01-18T23:28:17.109Z,6.89
2024-01-18T23:30:43.746Z,6.43
2024-01-18T23:33:10.623Z,6.75
2024-01-18T23:35:37.145Z,6.29
2024-01-18T23:38:03.793Z,6.15
2024-01-18T23:40:30.302Z,6.23
2024-01-18T23:42:57.912Z,5.95
2024-01-18T23:45:26.205Z,5.78
2024-01-18T23:47:52.903Z,6.28
2024-01-18T23:50:19.740Z,6.21
2024-01-18T23:52:46.260Z,6.24
2024-01-18T23:55:12.693Z,6.18
2024-01-18T23:57:39.522Z,6.28
